sensor_id;sensor_type;location;lat;lon;timestamp;temperature;humidity
74822;DHT22;63353;48.702;8.884;2023-12-29T00:01:59;8.10;99.90
74822;DHT22;63353;48.702;8.884;2023-12-29T00:04:27;8.10;99.90
74822;DHT22;63353;48.702;8.884;2023-12-29T00:06:53;8.10;99.90
74822;DHT22;63353;48.702;8.884;2023-12-29T00:09:19;8.00;99.90
74822;DHT22;63353;48.702;8.884;2023-12-29T00:11:51;8.00;99.90
74822;DHT22;63353;48.702;8.884;2023-12-29T00:14:17;7.90;99.90
74822;DHT22;63353;48.702;8.884;2023-12-29T00:16:43;7.90;99.90
74822;DHT22;63353;48.702;8.884;2023-12-29T00:19:10;7.80;99.90
74822;DHT22;63353;48.702;8.884;2023-12-29T00:21:36;7.90;99.90
74822;DHT22;63353;48.702;8.884;2023-12-29T00:24:02;7.90;99.90
74822;DHT22;63353;48.702;8.884;2023-12-29T00:26:28;7.80;99.90
74822;DHT22;63353;48.702;8.884;2023-12-29T00:28:54;7.80;99.90
74822;DHT22;63353;48.702;8.884;2023-12-29T00:31:20;7.80;99.90
74822;DHT22;63353;48.702;8.884;2023-12-29T00:33:45;7.80;99.90
74822;DHT22;63353;48.702;8.884;2023-12-29T00:36:18;7.80;99.90
74822;DHT22;63353;48.702;8.884;2023-12-29T00:38:44;7.80;99.90
74822;DHT22;63353;48.702;8.884;2023-12-29T00:41:10;7.80;99.90
74822;DHT22;63353;48.702;8.884;2023-12-29T00:43:36;7.80;99.90
74822;DHT22;63353;48.702;8.884;2023-12-29T00:46:02;7.80;99.90
74822;DHT22;63353;48.702;8.884;2023-12-29T00:48:29;7.80;99.90
74822;DHT22;63353;48.702;8.884;2023-12-29T00:50:55;7.80;99.90
74822;DHT22;63353;48.702;8.884;2023-12-29T00:53:20;7.80;99.90
74822;DHT22;63353;48.702;8.884;2023-12-29T00:55:46;7.80;99.90
74822;DHT22;63353;48.702;8.884;2023-12-29T00:58:12;7.80;99.90
74822;DHT22;63353;48.702;8.884;2023-12-29T01:00:37;7.80;99.90
74822;DHT22;63353;48.702;8.884;2023-12-29T01:03:03;7.80;99.90
74822;DHT22;63353;48.702;8.884;2023-12-29T01:05:29;7.80;99.90
74822;DHT22;63353;48.702;8.884;2023-12-29T01:07:55;7.80;99.90
74822;DHT22;63353;48.702;8.884;2023-12-29T01:10:21;7.80;99.90
74822;DHT22;63353;48.702;8.884;2023-12-29T01:12:47;7.80;99.90
74822;DHT22;63353;48.702;8.884;2023-12-29T01:15:13;7.80;99.90
74822;DHT22;63353;48.702;8.884;2023-12-29T01:17:39;7.80;99.90
74822;DHT22;63353;48.702;8.884;2023-12-29T01:20:05;7.70;99.90
74822;DHT22;63353;48.702;8.884;2023-12-29T01:22:31;7.70;99.90
74822;DHT22;63353;48.702;8.884;2023-12-29T01:24:59;7.70;99.90
74822;DHT22;63353;48.702;8.884;2023-12-29T01:27:25;7.70;99.90
74822;DHT22;63353;48.702;8.884;2023-12-29T01:29:50;7.70;99.90
74822;DHT22;63353;48.702;8.884;2023-12-29T01:32:18;7.70;99.90
74822;DHT22;63353;48.702;8.884;2023-12-29T01:34:44;7.80;99.90
74822;DHT22;63353;48.702;8.884;2023-12-29T01:37:09;7.60;99.90
74822;DHT22;63353;48.702;8.884;2023-12-29T01:39:35;7.70;99.90
74822;DHT22;63353;48.702;8.884;2023-12-29T01:42:01;7.60;99.90
74822;DHT22;63353;48.702;8.884;2023-12-29T01:44:27;7.60;99.90
74822;DHT22;63353;48.702;8.884;2023-12-29T01:47:01;7.60;99.90
74822;DHT22;63353;48.702;8.884;2023-12-29T01:49:28;7.60;99.90
74822;DHT22;63353;48.702;8.884;2023-12-29T01:51:58;7.60;99.90
74822;DHT22;63353;48.702;8.884;2023-12-29T01:54:29;7.70;99.90
74822;DHT22;63353;48.702;8.884;2023-12-29T01:56:57;7.70;99.90
74822;DHT22;63353;48.702;8.884;2023-12-29T01:59:25;7.60;99.90
74822;DHT22;63353;48.702;8.884;2023-12-29T02:01:51;7.60;99.90
74822;DHT22;63353;48.702;8.884;2023-12-29T02:04:19;7.60;99.90
74822;DHT22;63353;48.702;8.884;2023-12-29T02:06:44;7.60;99.90
74822;DHT22;63353;48.702;8.884;2023-12-29T02:09:11;7.60;99.90
74822;DHT22;63353;48.702;8.884;2023-12-29T02:11:41;7.60;99.90
74822;DHT22;63353;48.702;8.884;2023-12-29T02:14:07;7.50;99.90
74822;DHT22;63353;48.702;8.884;2023-12-29T02:22:04;7.60;99.90
74822;DHT22;63353;48.702;8.884;2023-12-29T02:24:29;7.60;99.90
74822;DHT22;63353;48.702;8.884;2023-12-29T02:27:07;7.50;99.90
74822;DHT22;63353;48.702;8.884;2023-12-29T02:29:36;7.60;99.90
74822;DHT22;63353;48.702;8.884;2023-12-29T02:32:05;7.60;99.90
74822;DHT22;63353;48.702;8.884;2023-12-29T02:34:32;7.60;99.90
74822;DHT22;63353;48.702;8.884;2023-12-29T02:36:59;7.50;99.90
74822;DHT22;63353;48.702;8.884;2023-12-29T02:39:25;7.50;99.90
74822;DHT22;63353;48.702;8.884;2023-12-29T02:41:51;7.50;99.90
74822;DHT22;63353;48.702;8.884;2023-12-29T02:44:16;7.50;99.90
74822;DHT22;63353;48.702;8.884;2023-12-29T02:46:42;7.40;99.90
74822;DHT22;63353;48.702;8.884;2023-12-29T02:49:07;7.30;99.90
74822;DHT22;63353;48.702;8.884;2023-12-29T02:51:38;7.20;99.90
74822;DHT22;63353;48.702;8.884;2023-12-29T02:54:04;7.20;99.90
74822;DHT22;63353;48.702;8.884;2023-12-29T02:56:31;7.20;99.90
74822;DHT22;63353;48.702;8.884;2023-12-29T02:58:56;7.20;99.90
74822;DHT22;63353;48.702;8.884;2023-12-29T03:01:22;7.20;99.90
74822;DHT22;63353;48.702;8.884;2023-12-29T03:03:48;7.20;99.90
74822;DHT22;63353;48.702;8.884;2023-12-29T03:06:13;7.30;99.90
74822;DHT22;63353;48.702;8.884;2023-12-29T03:08:39;7.30;99.90
74822;DHT22;63353;48.702;8.884;2023-12-29T03:11:04;7.30;99.90
74822;DHT22;63353;48.702;8.884;2023-12-29T03:13:30;7.30;99.90
74822;DHT22;63353;48.702;8.884;2023-12-29T03:15:56;7.40;99.90
74822;DHT22;63353;48.702;8.884;2023-12-29T03:18:21;7.40;99.90
74822;DHT22;63353;48.702;8.884;2023-12-29T03:20:47;7.40;99.90
74822;DHT22;63353;48.702;8.884;2023-12-29T03:23:12;7.40;99.90
74822;DHT22;63353;48.702;8.884;2023-12-29T03:25:38;7.50;99.90
74822;DHT22;63353;48.702;8.884;2023-12-29T03:28:04;7.50;99.90
74822;DHT22;63353;48.702;8.884;2023-12-29T03:30:29;7.40;99.90
74822;DHT22;63353;48.702;8.884;2023-12-29T03:32:55;7.40;99.90
74822;DHT22;63353;48.702;8.884;2023-12-29T03:35:21;7.30;99.90
74822;DHT22;63353;48.702;8.884;2023-12-29T03:37:46;7.20;99.90
74822;DHT22;63353;48.702;8.884;2023-12-29T03:40:12;7.20;99.90
74822;DHT22;63353;48.702;8.884;2023-12-29T03:42:38;7.10;99.90
74822;DHT22;63353;48.702;8.884;2023-12-29T03:45:04;7.20;99.90
74822;DHT22;63353;48.702;8.884;2023-12-29T03:47:30;7.10;99.90
74822;DHT22;63353;48.702;8.884;2023-12-29T03:49:57;7.10;99.90
74822;DHT22;63353;48.702;8.884;2023-12-29T03:52:23;7.10;99.90
74822;DHT22;63353;48.702;8.884;2023-12-29T03:54:48;7.10;99.90
74822;DHT22;63353;48.702;8.884;2023-12-29T03:57:14;7.10;99.90
74822;DHT22;63353;48.702;8.884;2023-12-29T03:59:40;7.10;99.90
74822;DHT22;63353;48.702;8.884;2023-12-29T04:02:05;7.10;99.90
74822;DHT22;63353;48.702;8.884;2023-12-29T04:04:31;7.10;99.90
74822;DHT22;63353;48.702;8.884;2023-12-29T04:06:57;7.20;99.90
74822;DHT22;63353;48.702;8.884;2023-12-29T04:09:23;7.20;99.90
74822;DHT22;63353;48.702;8.884;2023-12-29T04:11:48;7.10;99.90
74822;DHT22;63353;48.702;8.884;2023-12-29T04:14:14;7.20;99.90
74822;DHT22;63353;48.702;8.884;2023-12-29T04:16:40;7.30;99.90
74822;DHT22;63353;48.702;8.884;2023-12-29T04:19:05;7.20;99.90
74822;DHT22;63353;48.702;8.884;2023-12-29T04:21:31;7.20;99.90
74822;DHT22;63353;48.702;8.884;2023-12-29T04:23:57;7.30;99.90
74822;DHT22;63353;48.702;8.884;2023-12-29T04:26:22;7.20;99.90
74822;DHT22;63353;48.702;8.884;2023-12-29T04:28:48;7.30;99.90
74822;DHT22;63353;48.702;8.884;2023-12-29T04:31:13;7.20;99.90
74822;DHT22;63353;48.702;8.884;2023-12-29T04:33:39;7.20;99.90
74822;DHT22;63353;48.702;8.884;2023-12-29T04:36:05;7.10;99.90
74822;DHT22;63353;48.702;8.884;2023-12-29T04:38:31;7.10;99.90
74822;DHT22;63353;48.702;8.884;2023-12-29T04:40:56;7.20;99.90
74822;DHT22;63353;48.702;8.884;2023-12-29T04:43:22;7.20;99.90
74822;DHT22;63353;48.702;8.884;2023-12-29T04:45:47;7.10;99.90
74822;DHT22;63353;48.702;8.884;2023-12-29T04:48:13;7.20;99.90
74822;DHT22;63353;48.702;8.884;2023-12-29T04:50:39;7.20;99.90
74822;DHT22;63353;48.702;8.884;2023-12-29T04:53:04;7.20;99.90
74822;DHT22;63353;48.702;8.884;2023-12-29T04:55:30;7.20;99.90
74822;DHT22;63353;48.702;8.884;2023-12-29T04:57:55;7.20;99.90
74822;DHT22;63353;48.702;8.884;2023-12-29T05:00:21;7.10;99.90
74822;DHT22;63353;48.702;8.884;2023-12-29T05:02:47;7.10;99.90
74822;DHT22;63353;48.702;8.884;2023-12-29T05:05:12;7.10;99.90
74822;DHT22;63353;48.702;8.884;2023-12-29T05:07:38;7.20;99.90
74822;DHT22;63353;48.702;8.884;2023-12-29T05:10:06;7.20;99.90
74822;DHT22;63353;48.702;8.884;2023-12-29T05:12:31;7.30;99.90
74822;DHT22;63353;48.702;8.884;2023-12-29T05:14:57;7.30;99.90
74822;DHT22;63353;48.702;8.884;2023-12-29T05:17:22;7.30;99.90
74822;DHT22;63353;48.702;8.884;2023-12-29T05:19:48;7.30;99.90
74822;DHT22;63353;48.702;8.884;2023-12-29T05:22:14;7.30;99.90
74822;DHT22;63353;48.702;8.884;2023-12-29T05:24:43;7.20;99.90
74822;DHT22;63353;48.702;8.884;2023-12-29T05:27:08;7.20;99.90
74822;DHT22;63353;48.702;8.884;2023-12-29T05:29:34;7.20;99.90
74822;DHT22;63353;48.702;8.884;2023-12-29T05:32:00;7.20;99.90
74822;DHT22;63353;48.702;8.884;2023-12-29T05:34:27;7.30;99.90
74822;DHT22;63353;48.702;8.884;2023-12-29T05:36:53;7.30;99.90
74822;DHT22;63353;48.702;8.884;2023-12-29T05:39:19;7.20;99.90
74822;DHT22;63353;48.702;8.884;2023-12-29T05:41:44;7.20;99.90
74822;DHT22;63353;48.702;8.884;2023-12-29T05:44:10;7.20;99.90
74822;DHT22;63353;48.702;8.884;2023-12-29T05:46:36;7.20;99.90
74822;DHT22;63353;48.702;8.884;2023-12-29T05:49:01;7.20;99.90
74822;DHT22;63353;48.702;8.884;2023-12-29T05:51:27;7.20;99.90
74822;DHT22;63353;48.702;8.884;2023-12-29T05:53:53;7.30;99.90
74822;DHT22;63353;48.702;8.884;2023-12-29T05:56:18;7.30;99.90
74822;DHT22;63353;48.702;8.884;2023-12-29T05:58:44;7.30;99.90
74822;DHT22;63353;48.702;8.884;2023-12-29T06:01:10;7.30;99.90
74822;DHT22;63353;48.702;8.884;2023-12-29T06:03:36;7.20;99.90
74822;DHT22;63353;48.702;8.884;2023-12-29T06:06:02;7.20;99.90
74822;DHT22;63353;48.702;8.884;2023-12-29T06:08:27;7.20;99.90
74822;DHT22;63353;48.702;8.884;2023-12-29T06:10:53;7.20;99.90
74822;DHT22;63353;48.702;8.884;2023-12-29T06:13:19;7.20;99.90
74822;DHT22;63353;48.702;8.884;2023-12-29T06:15:44;7.20;99.90
74822;DHT22;63353;48.702;8.884;2023-12-29T06:18:10;7.20;99.90
74822;DHT22;63353;48.702;8.884;2023-12-29T06:20:36;7.20;99.90
74822;DHT22;63353;48.702;8.884;2023-12-29T06:23:01;7.20;99.90
74822;DHT22;63353;48.702;8.884;2023-12-29T06:25:27;7.10;99.90
74822;DHT22;63353;48.702;8.884;2023-12-29T06:27:53;7.20;99.90
74822;DHT22;63353;48.702;8.884;2023-12-29T06:30:20;7.20;99.90
74822;DHT22;63353;48.702;8.884;2023-12-29T06:32:45;7.20;99.90
74822;DHT22;63353;48.702;8.884;2023-12-29T06:35:11;7.20;99.90
74822;DHT22;63353;48.702;8.884;2023-12-29T06:37:37;7.20;99.90
74822;DHT22;63353;48.702;8.884;2023-12-29T06:40:05;7.20;99.90
74822;DHT22;63353;48.702;8.884;2023-12-29T06:42:31;7.20;99.90
74822;DHT22;63353;48.702;8.884;2023-12-29T06:44:57;7.30;99.90
74822;DHT22;63353;48.702;8.884;2023-12-29T06:47:23;7.20;99.90
74822;DHT22;63353;48.702;8.884;2023-12-29T06:49:48;7.20;99.90
74822;DHT22;63353;48.702;8.884;2023-12-29T06:52:15;7.20;99.90
74822;DHT22;63353;48.702;8.884;2023-12-29T06:54:41;7.10;99.90
74822;DHT22;63353;48.702;8.884;2023-12-29T06:57:07;7.20;99.90
74822;DHT22;63353;48.702;8.884;2023-12-29T06:59:32;7.20;99.90
74822;DHT22;63353;48.702;8.884;2023-12-29T07:01:58;7.20;99.90
74822;DHT22;63353;48.702;8.884;2023-12-29T07:04:24;7.30;99.90
74822;DHT22;63353;48.702;8.884;2023-12-29T07:06:50;7.30;99.90
74822;DHT22;63353;48.702;8.884;2023-12-29T07:09:15;7.30;99.90
74822;DHT22;63353;48.702;8.884;2023-12-29T07:11:41;7.30;99.90
74822;DHT22;63353;48.702;8.884;2023-12-29T07:14:07;7.30;99.90
74822;DHT22;63353;48.702;8.884;2023-12-29T07:16:32;7.30;99.90
74822;DHT22;63353;48.702;8.884;2023-12-29T07:18:58;7.30;99.90
74822;DHT22;63353;48.702;8.884;2023-12-29T07:21:24;7.40;99.90
74822;DHT22;63353;48.702;8.884;2023-12-29T07:23:49;7.40;99.90
74822;DHT22;63353;48.702;8.884;2023-12-29T07:26:15;7.40;99.90
74822;DHT22;63353;48.702;8.884;2023-12-29T07:28:40;7.30;99.90
74822;DHT22;63353;48.702;8.884;2023-12-29T07:31:06;7.30;99.90
74822;DHT22;63353;48.702;8.884;2023-12-29T07:33:33;7.30;99.90
74822;DHT22;63353;48.702;8.884;2023-12-29T07:35:59;7.30;99.90
74822;DHT22;63353;48.702;8.884;2023-12-29T07:38:25;7.40;99.90
74822;DHT22;63353;48.702;8.884;2023-12-29T07:40:51;7.50;99.90
74822;DHT22;63353;48.702;8.884;2023-12-29T07:43:16;7.50;99.90
74822;DHT22;63353;48.702;8.884;2023-12-29T07:45:42;7.50;99.90
74822;DHT22;63353;48.702;8.884;2023-12-29T07:48:10;7.50;99.90
74822;DHT22;63353;48.702;8.884;2023-12-29T07:50:36;7.50;99.90
74822;DHT22;63353;48.702;8.884;2023-12-29T07:53:02;7.50;99.90
74822;DHT22;63353;48.702;8.884;2023-12-29T07:55:30;7.50;99.90
74822;DHT22;63353;48.702;8.884;2023-12-29T07:57:56;7.50;99.90
74822;DHT22;63353;48.702;8.884;2023-12-29T08:00:22;7.60;99.90
74822;DHT22;63353;48.702;8.884;2023-12-29T08:02:48;7.60;99.90
74822;DHT22;63353;48.702;8.884;2023-12-29T08:05:14;7.60;99.90
74822;DHT22;63353;48.702;8.884;2023-12-29T08:07:41;7.60;99.90
74822;DHT22;63353;48.702;8.884;2023-12-29T08:10:07;7.50;99.90
74822;DHT22;63353;48.702;8.884;2023-12-29T08:12:33;7.50;99.90
74822;DHT22;63353;48.702;8.884;2023-12-29T08:15:00;7.60;99.90
74822;DHT22;63353;48.702;8.884;2023-12-29T08:17:26;7.60;99.90
74822;DHT22;63353;48.702;8.884;2023-12-29T08:19:52;7.60;99.90
74822;DHT22;63353;48.702;8.884;2023-12-29T08:22:20;7.60;99.90
74822;DHT22;63353;48.702;8.884;2023-12-29T08:24:45;7.60;99.90
74822;DHT22;63353;48.702;8.884;2023-12-29T08:27:18;7.70;99.90
74822;DHT22;63353;48.702;8.884;2023-12-29T08:29:47;7.70;99.90
74822;DHT22;63353;48.702;8.884;2023-12-29T08:32:13;7.80;99.90
74822;DHT22;63353;48.702;8.884;2023-12-29T08:34:38;7.80;99.90
74822;DHT22;63353;48.702;8.884;2023-12-29T08:37:04;7.80;99.90
74822;DHT22;63353;48.702;8.884;2023-12-29T08:39:30;7.80;99.90
74822;DHT22;63353;48.702;8.884;2023-12-29T08:41:55;7.70;99.90
74822;DHT22;63353;48.702;8.884;2023-12-29T08:44:21;7.80;99.90
74822;DHT22;63353;48.702;8.884;2023-12-29T08:46:47;7.80;99.90
74822;DHT22;63353;48.702;8.884;2023-12-29T08:49:12;7.80;99.90
74822;DHT22;63353;48.702;8.884;2023-12-29T08:51:38;7.80;99.90
74822;DHT22;63353;48.702;8.884;2023-12-29T08:54:04;7.80;99.90
74822;DHT22;63353;48.702;8.884;2023-12-29T08:56:30;7.80;99.90
74822;DHT22;63353;48.702;8.884;2023-12-29T08:58:55;7.80;99.90
74822;DHT22;63353;48.702;8.884;2023-12-29T09:01:21;7.80;99.90
74822;DHT22;63353;48.702;8.884;2023-12-29T09:03:47;7.80;99.90
74822;DHT22;63353;48.702;8.884;2023-12-29T09:06:12;7.80;99.90
74822;DHT22;63353;48.702;8.884;2023-12-29T09:08:39;7.80;99.90
74822;DHT22;63353;48.702;8.884;2023-12-29T09:11:05;7.90;99.90
74822;DHT22;63353;48.702;8.884;2023-12-29T09:13:30;7.90;99.90
74822;DHT22;63353;48.702;8.884;2023-12-29T09:15:58;7.90;99.90
74822;DHT22;63353;48.702;8.884;2023-12-29T09:18:24;7.90;99.90
74822;DHT22;63353;48.702;8.884;2023-12-29T09:20:50;7.90;99.90
74822;DHT22;63353;48.702;8.884;2023-12-29T09:23:15;7.90;99.90
74822;DHT22;63353;48.702;8.884;2023-12-29T09:25:41;7.90;99.90
74822;DHT22;63353;48.702;8.884;2023-12-29T09:28:07;8.00;99.90
74822;DHT22;63353;48.702;8.884;2023-12-29T09:30:32;8.00;99.90
74822;DHT22;63353;48.702;8.884;2023-12-29T09:32:58;8.00;99.90
74822;DHT22;63353;48.702;8.884;2023-12-29T09:35:24;8.00;99.90
74822;DHT22;63353;48.702;8.884;2023-12-29T09:37:50;8.10;99.90
74822;DHT22;63353;48.702;8.884;2023-12-29T09:40:16;8.10;99.90
74822;DHT22;63353;48.702;8.884;2023-12-29T09:42:44;8.20;99.90
74822;DHT22;63353;48.702;8.884;2023-12-29T09:45:11;8.20;99.90
74822;DHT22;63353;48.702;8.884;2023-12-29T09:47:39;8.20;99.90
74822;DHT22;63353;48.702;8.884;2023-12-29T09:50:07;8.20;99.90
74822;DHT22;63353;48.702;8.884;2023-12-29T09:52:35;8.20;99.90
74822;DHT22;63353;48.702;8.884;2023-12-29T09:55:02;8.20;99.90
74822;DHT22;63353;48.702;8.884;2023-12-29T09:57:28;8.20;99.90
74822;DHT22;63353;48.702;8.884;2023-12-29T09:59:55;8.30;99.90
74822;DHT22;63353;48.702;8.884;2023-12-29T10:02:21;8.30;99.90
74822;DHT22;63353;48.702;8.884;2023-12-29T10:04:50;8.40;99.90
74822;DHT22;63353;48.702;8.884;2023-12-29T10:07:20;8.50;99.90
74822;DHT22;63353;48.702;8.884;2023-12-29T10:09:50;8.50;99.90
74822;DHT22;63353;48.702;8.884;2023-12-29T10:12:19;8.70;99.90
74822;DHT22;63353;48.702;8.884;2023-12-29T10:20:59;8.80;99.90
74822;DHT22;63353;48.702;8.884;2023-12-29T10:26:00;9.20;99.90
74822;DHT22;63353;48.702;8.884;2023-12-29T10:28:26;9.10;99.90
74822;DHT22;63353;48.702;8.884;2023-12-29T10:30:51;9.20;99.90
74822;DHT22;63353;48.702;8.884;2023-12-29T10:33:20;9.40;99.90
74822;DHT22;63353;48.702;8.884;2023-12-29T10:35:58;9.70;99.90
74822;DHT22;63353;48.702;8.884;2023-12-29T10:38:33;9.90;99.90
74822;DHT22;63353;48.702;8.884;2023-12-29T10:41:15;10.00;99.90
74822;DHT22;63353;48.702;8.884;2023-12-29T10:43:42;9.90;99.90
74822;DHT22;63353;48.702;8.884;2023-12-29T10:46:10;10.10;99.90
74822;DHT22;63353;48.702;8.884;2023-12-29T10:48:36;10.00;99.90
74822;DHT22;63353;48.702;8.884;2023-12-29T10:51:02;9.70;99.90
74822;DHT22;63353;48.702;8.884;2023-12-29T10:53:30;9.80;99.90
74822;DHT22;63353;48.702;8.884;2023-12-29T10:55:56;9.90;99.90
74822;DHT22;63353;48.702;8.884;2023-12-29T10:58:27;10.20;99.90
74822;DHT22;63353;48.702;8.884;2023-12-29T11:00:55;10.30;99.90
74822;DHT22;63353;48.702;8.884;2023-12-29T11:03:22;10.20;99.90
74822;DHT22;63353;48.702;8.884;2023-12-29T11:05:47;10.10;99.90
74822;DHT22;63353;48.702;8.884;2023-12-29T11:08:18;10.30;99.90
74822;DHT22;63353;48.702;8.884;2023-12-29T11:10:44;10.40;99.90
74822;DHT22;63353;48.702;8.884;2023-12-29T11:13:13;10.50;99.90
74822;DHT22;63353;48.702;8.884;2023-12-29T11:15:45;10.40;99.90
74822;DHT22;63353;48.702;8.884;2023-12-29T11:18:15;10.30;99.90
74822;DHT22;63353;48.702;8.884;2023-12-29T11:20:42;10.50;99.90
74822;DHT22;63353;48.702;8.884;2023-12-29T11:23:09;10.60;99.90
74822;DHT22;63353;48.702;8.884;2023-12-29T11:25:35;10.80;99.90
74822;DHT22;63353;48.702;8.884;2023-12-29T11:28:01;10.70;99.90
74822;DHT22;63353;48.702;8.884;2023-12-29T11:30:27;10.50;99.90
74822;DHT22;63353;48.702;8.884;2023-12-29T11:33:06;10.60;99.90
74822;DHT22;63353;48.702;8.884;2023-12-29T11:35:51;10.60;99.90
74822;DHT22;63353;48.702;8.884;2023-12-29T11:41:09;10.60;99.90
74822;DHT22;63353;48.702;8.884;2023-12-29T11:43:37;10.60;99.90
74822;DHT22;63353;48.702;8.884;2023-12-29T11:46:03;10.70;99.90
74822;DHT22;63353;48.702;8.884;2023-12-29T11:48:57;10.40;99.90
74822;DHT22;63353;48.702;8.884;2023-12-29T11:51:36;10.60;99.90
74822;DHT22;63353;48.702;8.884;2023-12-29T11:54:05;10.70;99.90
74822;DHT22;63353;48.702;8.884;2023-12-29T11:56:33;10.70;99.90
74822;DHT22;63353;48.702;8.884;2023-12-29T11:59:23;10.60;99.90
74822;DHT22;63353;48.702;8.884;2023-12-29T12:01:51;10.60;99.90
74822;DHT22;63353;48.702;8.884;2023-12-29T12:04:43;10.70;99.90
74822;DHT22;63353;48.702;8.884;2023-12-29T12:12:54;10.90;99.90
74822;DHT22;63353;48.702;8.884;2023-12-29T12:17:54;11.10;99.90
74822;DHT22;63353;48.702;8.884;2023-12-29T12:20:20;11.00;99.90
74822;DHT22;63353;48.702;8.884;2023-12-29T12:22:49;11.00;99.90
74822;DHT22;63353;48.702;8.884;2023-12-29T12:25:18;11.10;99.90
74822;DHT22;63353;48.702;8.884;2023-12-29T12:27:44;11.30;99.90
74822;DHT22;63353;48.702;8.884;2023-12-29T12:30:10;11.30;99.90
74822;DHT22;63353;48.702;8.884;2023-12-29T12:32:37;11.30;99.90
74822;DHT22;63353;48.702;8.884;2023-12-29T12:35:03;11.50;99.90
74822;DHT22;63353;48.702;8.884;2023-12-29T12:37:38;11.60;99.90
74822;DHT22;63353;48.702;8.884;2023-12-29T12:40:05;11.60;99.90
74822;DHT22;63353;48.702;8.884;2023-12-29T12:42:37;11.90;99.90
74822;DHT22;63353;48.702;8.884;2023-12-29T12:45:16;11.90;99.90
74822;DHT22;63353;48.702;8.884;2023-12-29T12:47:45;11.70;99.90
74822;DHT22;63353;48.702;8.884;2023-12-29T12:50:12;11.50;99.90
74822;DHT22;63353;48.702;8.884;2023-12-29T12:52:39;11.30;99.90
74822;DHT22;63353;48.702;8.884;2023-12-29T12:55:07;11.20;99.90
74822;DHT22;63353;48.702;8.884;2023-12-29T12:57:37;11.20;99.90
74822;DHT22;63353;48.702;8.884;2023-12-29T13:00:04;11.20;99.90
74822;DHT22;63353;48.702;8.884;2023-12-29T13:02:33;11.10;99.90
74822;DHT22;63353;48.702;8.884;2023-12-29T13:04:59;11.00;99.90
74822;DHT22;63353;48.702;8.884;2023-12-29T13:07:34;11.10;99.90
74822;DHT22;63353;48.702;8.884;2023-12-29T13:10:01;11.10;99.90
74822;DHT22;63353;48.702;8.884;2023-12-29T13:12:34;11.10;99.90
74822;DHT22;63353;48.702;8.884;2023-12-29T13:15:07;10.90;99.90
74822;DHT22;63353;48.702;8.884;2023-12-29T13:17:35;10.90;99.90
74822;DHT22;63353;48.702;8.884;2023-12-29T13:20:02;10.90;99.90
74822;DHT22;63353;48.702;8.884;2023-12-29T13:22:29;10.80;99.90
74822;DHT22;63353;48.702;8.884;2023-12-29T13:24:55;10.70;99.90
74822;DHT22;63353;48.702;8.884;2023-12-29T13:27:22;10.80;99.90
74822;DHT22;63353;48.702;8.884;2023-12-29T13:29:48;11.10;99.90
74822;DHT22;63353;48.702;8.884;2023-12-29T13:32:21;11.20;99.90
74822;DHT22;63353;48.702;8.884;2023-12-29T13:37:44;11.10;99.90
74822;DHT22;63353;48.702;8.884;2023-12-29T13:40:22;10.90;99.90
74822;DHT22;63353;48.702;8.884;2023-12-29T13:42:55;10.70;99.90
74822;DHT22;63353;48.702;8.884;2023-12-29T13:45:22;10.60;99.90
74822;DHT22;63353;48.702;8.884;2023-12-29T13:47:49;10.40;99.90
74822;DHT22;63353;48.702;8.884;2023-12-29T13:50:15;10.40;99.90
74822;DHT22;63353;48.702;8.884;2023-12-29T13:52:41;10.40;99.90
74822;DHT22;63353;48.702;8.884;2023-12-29T13:55:07;10.40;99.90
74822;DHT22;63353;48.702;8.884;2023-12-29T13:57:36;10.40;99.90
74822;DHT22;63353;48.702;8.884;2023-12-29T14:00:18;10.30;99.90
74822;DHT22;63353;48.702;8.884;2023-12-29T14:02:57;10.40;99.90
74822;DHT22;63353;48.702;8.884;2023-12-29T14:05:36;10.30;99.90
74822;DHT22;63353;48.702;8.884;2023-12-29T14:10:34;10.30;99.90
74822;DHT22;63353;48.702;8.884;2023-12-29T14:13:09;10.20;99.90
74822;DHT22;63353;48.702;8.884;2023-12-29T14:15:39;10.20;99.90
74822;DHT22;63353;48.702;8.884;2023-12-29T14:20:39;10.20;99.90
74822;DHT22;63353;48.702;8.884;2023-12-29T14:23:08;10.20;99.90
74822;DHT22;63353;48.702;8.884;2023-12-29T14:25:36;10.20;99.90
74822;DHT22;63353;48.702;8.884;2023-12-29T14:28:24;10.20;99.90
74822;DHT22;63353;48.702;8.884;2023-12-29T14:30:49;10.10;99.90
74822;DHT22;63353;48.702;8.884;2023-12-29T14:33:16;10.10;99.90
74822;DHT22;63353;48.702;8.884;2023-12-29T14:35:41;10.10;99.90
74822;DHT22;63353;48.702;8.884;2023-12-29T14:38:07;10.00;99.90
74822;DHT22;63353;48.702;8.884;2023-12-29T14:40:33;9.90;99.90
74822;DHT22;63353;48.702;8.884;2023-12-29T14:43:02;9.90;99.90
74822;DHT22;63353;48.702;8.884;2023-12-29T14:45:27;9.80;99.90
74822;DHT22;63353;48.702;8.884;2023-12-29T14:47:59;9.80;99.90
74822;DHT22;63353;48.702;8.884;2023-12-29T14:50:26;9.70;99.90
74822;DHT22;63353;48.702;8.884;2023-12-29T14:52:51;9.60;99.90
74822;DHT22;63353;48.702;8.884;2023-12-29T14:55:18;9.70;99.90
74822;DHT22;63353;48.702;8.884;2023-12-29T14:57:46;9.60;99.90
74822;DHT22;63353;48.702;8.884;2023-12-29T15:00:12;9.60;99.90
74822;DHT22;63353;48.702;8.884;2023-12-29T15:02:37;9.60;99.90
74822;DHT22;63353;48.702;8.884;2023-12-29T15:05:03;9.50;99.90
74822;DHT22;63353;48.702;8.884;2023-12-29T15:07:29;9.50;99.90
74822;DHT22;63353;48.702;8.884;2023-12-29T15:09:56;9.40;99.90
74822;DHT22;63353;48.702;8.884;2023-12-29T15:12:22;9.40;99.90
74822;DHT22;63353;48.702;8.884;2023-12-29T15:14:48;9.40;99.90
74822;DHT22;63353;48.702;8.884;2023-12-29T15:17:13;9.30;99.90
74822;DHT22;63353;48.702;8.884;2023-12-29T15:19:39;9.30;99.90
74822;DHT22;63353;48.702;8.884;2023-12-29T15:22:04;9.20;99.90
74822;DHT22;63353;48.702;8.884;2023-12-29T15:24:30;9.10;99.90
74822;DHT22;63353;48.702;8.884;2023-12-29T15:26:56;9.00;99.90
74822;DHT22;63353;48.702;8.884;2023-12-29T15:29:21;9.00;99.90
74822;DHT22;63353;48.702;8.884;2023-12-29T15:31:49;8.90;99.90
74822;DHT22;63353;48.702;8.884;2023-12-29T15:34:14;8.80;99.90
74822;DHT22;63353;48.702;8.884;2023-12-29T15:36:40;8.90;99.90
74822;DHT22;63353;48.702;8.884;2023-12-29T15:39:05;8.80;99.90
74822;DHT22;63353;48.702;8.884;2023-12-29T15:41:32;8.70;99.90
74822;DHT22;63353;48.702;8.884;2023-12-29T15:43:58;8.60;99.90
74822;DHT22;63353;48.702;8.884;2023-12-29T15:46:24;8.60;99.90
74822;DHT22;63353;48.702;8.884;2023-12-29T15:48:51;8.60;99.90
74822;DHT22;63353;48.702;8.884;2023-12-29T15:51:17;8.50;99.90
74822;DHT22;63353;48.702;8.884;2023-12-29T15:53:43;8.60;99.90
74822;DHT22;63353;48.702;8.884;2023-12-29T15:56:18;8.60;99.90
74822;DHT22;63353;48.702;8.884;2023-12-29T15:58:45;8.50;99.90
74822;DHT22;63353;48.702;8.884;2023-12-29T16:01:22;8.40;99.90
74822;DHT22;63353;48.702;8.884;2023-12-29T16:03:49;8.40;99.90
74822;DHT22;63353;48.702;8.884;2023-12-29T16:06:23;8.30;99.90
74822;DHT22;63353;48.702;8.884;2023-12-29T16:08:49;8.30;99.90
74822;DHT22;63353;48.702;8.884;2023-12-29T16:11:23;8.20;99.90
74822;DHT22;63353;48.702;8.884;2023-12-29T16:13:52;8.20;99.90
74822;DHT22;63353;48.702;8.884;2023-12-29T16:16:18;8.10;99.90